createdAt,value
2023-08-27T00:05:24.405Z,15.4
2023-08-27T00:15:24.595Z,15.5
2023-08-27T00:25:24.776Z,15.5
2023-08-27T00:35:24.964Z,15.3
2023-08-27T00:55:25.372Z,14.9
2023-08-27T01:15:25.813Z,14.4
2023-08-27T01:25:25.952Z,14.1
2023-08-27T01:35:26.221Z,14
2023-08-27T01:45:26.352Z,13.9
2023-08-27T01:55:26.559Z,13.7
2023-08-27T02:05:26.825Z,13.6
2023-08-27T02:15:26.959Z,13.4
2023-08-27T02:25:27.146Z,13.3
2023-08-27T02:35:27.348Z,13.3
2023-08-27T02:45:27.548Z,13.2
2023-08-27T02:55:27.750Z,13.1
2023-08-27T03:05:28.023Z,13.2
2023-08-27T03:15:28.146Z,13.1
2023-08-27T03:25:28.349Z,12.9
2023-08-27T03:35:28.558Z,12.9
2023-08-27T03:45:28.764Z,12.7
2023-08-27T03:55:28.957Z,12.7
2023-08-27T04:05:29.146Z,12.6
2023-08-27T04:15:29.340Z,12.4
2023-08-27T04:25:29.564Z,12.4
2023-08-27T04:35:29.751Z,12.6
2023-08-27T04:45:30.008Z,12.7
2023-08-27T04:55:30.175Z,12.8
2023-08-27T05:05:30.327Z,13
2023-08-27T05:15:30.586Z,13.3
2023-08-27T05:25:30.731Z,13.6
2023-08-27T05:35:30.965Z,13.8
2023-08-27T05:45:31.160Z,14.1
2023-08-27T05:55:31.330Z,14.2
2023-08-27T06:05:31.576Z,14.4
2023-08-27T06:15:31.761Z,14.3
2023-08-27T06:35:32.138Z,14.1
2023-08-27T06:45:32.320Z,14.1
2023-08-27T06:55:32.543Z,14.1
2023-08-27T07:15:32.977Z,14.4
2023-08-27T07:35:33.318Z,14.6
2023-08-27T07:45:33.544Z,14.8
2023-08-27T07:55:33.712Z,15.4
2023-08-27T08:15:34.167Z,16.3
2023-08-27T08:25:34.320Z,16.3
2023-08-27T08:35:34.523Z,16.6
2023-08-27T08:55:34.911Z,17.4
2023-08-27T09:35:35.701Z,18.2
2023-08-27T09:45:35.917Z,18.5
2023-08-27T09:55:36.093Z,18.8
2023-08-27T10:15:36.510Z,18.1
2023-08-27T10:25:36.723Z,19.2
2023-08-27T10:35:36.880Z,19.1
2023-08-27T10:55:37.318Z,19.5
2023-08-27T11:15:37.701Z,19.4
2023-08-27T11:25:37.865Z,20
2023-08-27T11:35:38.053Z,21
2023-08-27T11:55:38.475Z,20
2023-08-27T12:15:38.852Z,21.4
2023-08-27T12:25:39.041Z,21
2023-08-27T12:35:39.233Z,21.9
2023-08-27T12:45:39.439Z,22.3
2023-08-27T12:55:39.620Z,21.5
2023-08-27T13:05:39.858Z,20.8
2023-08-27T13:15:40.016Z,18.3
2023-08-27T13:25:40.323Z,14.9
2023-08-27T13:45:40.629Z,14
2023-08-27T13:55:40.818Z,15.1
2023-08-27T14:05:41.015Z,15.7
2023-08-27T14:15:41.219Z,16.4
2023-08-27T14:25:41.405Z,17
2023-08-27T14:35:41.643Z,17.1
2023-08-27T14:45:41.807Z,17.4
2023-08-27T14:55:42.001Z,17.2
2023-08-27T15:05:42.193Z,17.4
2023-08-27T15:15:42.426Z,17.8
2023-08-27T15:25:42.590Z,17.4
2023-08-27T15:55:43.193Z,18.3
2023-08-27T16:15:43.589Z,18.4
2023-08-27T16:25:43.787Z,18.3
2023-08-27T16:35:43.988Z,18.2
2023-08-27T16:45:44.173Z,17.7
2023-08-27T16:55:44.362Z,17.5
2023-08-27T17:05:44.576Z,17.2
2023-08-27T17:15:44.775Z,16.9
2023-08-27T17:25:44.988Z,16.6
2023-08-27T17:35:45.157Z,16.5
2023-08-27T17:45:45.402Z,15.2
2023-08-27T17:55:45.564Z,14.5
2023-08-27T18:05:45.753Z,14.3
2023-08-27T18:15:45.980Z,14.2
2023-08-27T18:25:46.145Z,14.2
2023-08-27T18:35:46.377Z,14
2023-08-27T18:55:46.747Z,13.9
2023-08-27T19:05:46.939Z,13.7
2023-08-27T19:15:47.141Z,13.5
2023-08-27T19:25:47.337Z,13.3
2023-08-27T19:35:47.544Z,13.1
2023-08-27T19:45:47.770Z,13
2023-08-27T19:55:47.938Z,12.9
2023-08-27T20:05:48.140Z,12.9
2023-08-27T20:15:48.355Z,12.8
2023-08-27T20:25:48.533Z,12.8
2023-08-27T20:35:48.734Z,12.9
2023-08-27T20:45:48.980Z,12.8
2023-08-27T21:05:49.332Z,13
2023-08-27T21:15:49.544Z,13.2
2023-08-27T21:25:49.758Z,13.2
2023-08-27T21:35:49.930Z,13.1
2023-08-27T21:55:50.337Z,12.9
2023-08-27T22:05:50.536Z,13
2023-08-27T22:15:50.727Z,13.1
2023-08-27T22:25:50.965Z,13.1
2023-08-27T22:45:51.342Z,13
2023-08-27T22:55:51.529Z,12.9
2023-08-27T23:05:51.734Z,12.7
2023-08-27T23:15:51.932Z,12.7
2023-08-27T23:25:52.128Z,12.5
2023-08-27T23:35:52.325Z,12.5
2023-08-27T23:45:52.537Z,12.4
2023-08-27T23:55:52.732Z,12.6
